createdAt,value
2023-05-12T00:00:55.630Z,29.75
2023-05-12T00:03:22.333Z,35.40
2023-05-12T00:05:48.801Z,32.88
2023-05-12T00:08:15.361Z,34.97
2023-05-12T00:10:41.756Z,33.22
2023-05-12T00:13:08.537Z,36.03
2023-05-12T00:15:36.549Z,31.83
2023-05-12T00:18:03.094Z,33.05
2023-05-12T00:20:29.739Z,37.10
2023-05-12T00:22:56.110Z,40.67
2023-05-12T00:25:22.505Z,36.10
2023-05-12T00:27:48.888Z,37.63
2023-05-12T00:30:15.606Z,32.58
2023-05-12T00:32:43.335Z,34.85
2023-05-12T00:35:10.049Z,31.08
2023-05-12T00:37:36.437Z,35.65
2023-05-12T00:40:02.816Z,32.60
2023-05-12T00:42:29.269Z,33.95
2023-05-12T00:44:55.896Z,35.63
2023-05-12T00:47:22.528Z,37.05
2023-05-12T00:49:51.285Z,31.85
2023-05-12T00:52:17.684Z,33.15
2023-05-12T00:54:44.246Z,31.38
2023-05-12T00:57:10.846Z,32.60
2023-05-12T00:59:37.327Z,32.30
2023-05-12T01:02:04.228Z,29.80
2023-05-12T01:04:30.667Z,29.77
2023-05-12T01:07:04.413Z,26.88
2023-05-12T01:09:30.872Z,29.75
2023-05-12T01:11:57.227Z,31.48
2023-05-12T01:14:23.621Z,27.70
2023-05-12T01:16:52.338Z,33.47
2023-05-12T01:19:34.140Z,28.65
2023-05-12T01:22:02.201Z,31.85
2023-05-12T01:24:32.318Z,33.15
2023-05-12T01:27:00.200Z,31.85
2023-05-12T01:29:28.166Z,39.00
2023-05-12T01:31:55.160Z,34.28
2023-05-12T01:34:21.683Z,35.20
2023-05-12T01:36:48.071Z,32.65
2023-05-12T01:39:14.474Z,33.58
2023-05-12T01:41:41.042Z,32.22
2023-05-12T01:44:08.911Z,32.78
2023-05-12T01:46:35.294Z,32.05
2023-05-12T01:49:01.850Z,31.98
2023-05-12T01:51:28.293Z,33.40
2023-05-12T01:53:54.734Z,28.65
2023-05-12T01:56:21.162Z,32.70
2023-05-12T01:58:47.526Z,33.63
2023-05-12T02:01:15.365Z,29.05
2023-05-12T02:03:41.915Z,29.60
2023-05-12T02:06:08.396Z,30.58
2023-05-12T02:08:34.820Z,30.15
2023-05-12T02:11:05.054Z,29.75
2023-05-12T02:13:31.480Z,29.15
2023-05-12T02:15:57.960Z,31.60
2023-05-12T02:18:25.812Z,29.77
2023-05-12T02:20:52.271Z,31.75
2023-05-12T02:23:18.701Z,30.55
2023-05-12T02:25:45.092Z,30.58
2023-05-12T02:28:11.539Z,29.17
2023-05-12T02:30:38.103Z,31.10
2023-05-12T02:33:04.889Z,30.02
2023-05-12T02:35:32.668Z,28.38
2023-05-12T02:37:59.004Z,26.67
2023-05-12T02:40:25.399Z,27.58
2023-05-12T02:42:51.897Z,27.05
2023-05-12T02:45:19.381Z,30.85
2023-05-12T02:47:46.127Z,27.63
2023-05-12T02:50:12.621Z,28.10
2023-05-12T02:52:40.410Z,30.35
2023-05-12T02:55:07.409Z,32.50
2023-05-12T02:57:34.092Z,29.30
2023-05-12T03:00:00.933Z,33.28
2023-05-12T03:02:27.754Z,30.17
2023-05-12T03:04:54.208Z,31.27
2023-05-12T03:07:20.634Z,30.83
2023-05-12T03:09:48.471Z,27.65
2023-05-12T03:12:14.818Z,29.98
2023-05-12T03:14:41.316Z,31.50
2023-05-12T03:17:07.796Z,30.65
2023-05-12T03:19:34.213Z,28.10
2023-05-12T03:22:00.705Z,30.15
2023-05-12T03:24:27.548Z,30.05
2023-05-12T03:26:55.334Z,28.90
2023-05-12T03:29:21.773Z,28.33
2023-05-12T03:31:48.314Z,29.30
2023-05-12T03:34:14.872Z,27.98
2023-05-12T03:36:41.251Z,28.98
2023-05-12T03:39:07.649Z,28.65
2023-05-12T03:41:34.067Z,28.45
2023-05-12T03:44:01.804Z,26.45
2023-05-12T03:46:28.525Z,27.52
2023-05-12T03:48:55.365Z,28.70
2023-05-12T03:51:21.739Z,28.77
2023-05-12T03:53:48.278Z,29.92
2023-05-12T03:56:14.672Z,30.52
2023-05-12T03:58:41.272Z,28.58
2023-05-12T04:01:09.067Z,26.48
2023-05-12T04:03:35.472Z,29.05
2023-05-12T04:06:04.265Z,31.95
2023-05-12T04:08:34.048Z,28.58
2023-05-12T04:11:01.819Z,28.27
2023-05-12T04:13:29.739Z,29.63
2023-05-12T04:15:56.960Z,28.63
2023-05-12T04:18:25.418Z,29.40
2023-05-12T04:20:52.557Z,28.95
2023-05-12T04:23:18.994Z,29.10
2023-05-12T04:25:46.189Z,31.58
2023-05-12T04:28:13.148Z,26.60
2023-05-12T04:30:40.711Z,28.90
2023-05-12T04:33:07.179Z,28.73
2023-05-12T04:35:35.555Z,29.30
2023-05-12T04:38:02.277Z,29.40
2023-05-12T04:40:28.760Z,27.27
2023-05-12T04:42:55.216Z,30.25
2023-05-12T04:45:22.782Z,30.38
2023-05-12T04:47:49.607Z,28.40
2023-05-12T04:50:16.057Z,24.88
2023-05-12T04:52:43.976Z,25.88
2023-05-12T04:55:10.452Z,27.75
2023-05-12T04:57:36.837Z,25.45
2023-05-12T05:00:04.156Z,25.60
2023-05-12T05:02:30.760Z,26.70
2023-05-12T05:04:57.233Z,25.83
2023-05-12T05:07:23.650Z,27.50
2023-05-12T05:09:51.303Z,26.42
2023-05-12T05:12:17.644Z,27.25
2023-05-12T05:14:44.077Z,26.65
2023-05-12T05:17:10.589Z,25.42
2023-05-12T05:19:49.843Z,24.38
2023-05-12T05:22:18.836Z,24.88
2023-05-12T05:24:45.233Z,23.50
2023-05-12T05:27:12.917Z,26.45
2023-05-12T05:29:39.319Z,25.80
2023-05-12T05:32:06.008Z,23.05
2023-05-12T05:34:32.442Z,24.65
2023-05-12T05:36:58.817Z,23.58
2023-05-12T05:39:25.170Z,23.45
2023-05-12T05:41:51.558Z,24.15
2023-05-12T05:44:19.274Z,25.05
2023-05-12T05:46:45.665Z,21.30
2023-05-12T05:49:12.080Z,23.38
2023-05-12T05:51:38.488Z,22.70
2023-05-12T05:54:04.880Z,21.35
2023-05-12T05:56:31.235Z,22.83
2023-05-12T05:58:57.666Z,22.42
2023-05-12T06:01:25.441Z,20.75
2023-05-12T06:03:51.984Z,19.42
2023-05-12T06:06:18.593Z,20.67
2023-05-12T06:08:45.010Z,20.83
2023-05-12T06:11:11.355Z,19.63
2023-05-12T06:13:37.846Z,18.77
2023-05-12T06:16:04.678Z,20.63
2023-05-12T06:18:32.375Z,22.15
2023-05-12T06:20:58.822Z,20.05
2023-05-12T06:23:25.273Z,18.35
2023-05-12T06:25:51.861Z,17.15
2023-05-12T06:28:18.281Z,15.50
2023-05-12T06:30:44.701Z,16.58
2023-05-12T06:33:11.084Z,16.92
2023-05-12T06:35:38.866Z,16.60
2023-05-12T06:38:05.283Z,15.88
2023-05-12T06:40:31.632Z,17.05
2023-05-12T06:42:58.046Z,18.85
2023-05-12T06:45:26.563Z,20.30
2023-05-12T06:47:53.054Z,19.65
2023-05-12T06:50:19.546Z,17.77
2023-05-12T06:52:47.237Z,16.65
2023-05-12T06:55:13.596Z,16.50
2023-05-12T06:57:39.962Z,16.83
2023-05-12T07:00:07.605Z,16.90
2023-05-12T07:02:34.072Z,15.75
2023-05-12T07:05:00.515Z,16.35
2023-05-12T07:07:26.930Z,14.45
2023-05-12T07:09:54.604Z,13.35
2023-05-12T07:12:21.176Z,11.35
2023-05-12T07:14:47.552Z,10.95
2023-05-12T07:17:13.932Z,10.80
2023-05-12T07:19:40.320Z,11.70
2023-05-12T07:22:06.728Z,11.10
2023-05-12T07:24:33.110Z,10.60
2023-05-12T07:27:00.872Z,10.20
2023-05-12T07:29:27.266Z,9.52
2023-05-12T07:31:53.861Z,8.45
2023-05-12T07:34:20.340Z,9.38
2023-05-12T07:36:46.685Z,8.70
2023-05-12T07:39:13.133Z,8.70
2023-05-12T07:41:39.785Z,8.80
2023-05-12T07:44:07.507Z,8.07
2023-05-12T07:46:33.883Z,7.78
2023-05-12T07:49:00.282Z,8.52
2023-05-12T07:51:26.609Z,7.38
2023-05-12T07:53:53.073Z,8.00
2023-05-12T07:56:19.460Z,8.35
2023-05-12T07:58:47.529Z,8.27
2023-05-12T08:01:15.431Z,8.32
2023-05-12T08:03:41.884Z,8.75
2023-05-12T08:06:08.322Z,7.57
2023-05-12T08:08:34.767Z,7.82
2023-05-12T08:11:01.213Z,7.80
2023-05-12T08:13:27.607Z,8.00
2023-05-12T08:15:53.980Z,8.40
2023-05-12T08:18:21.825Z,8.27
2023-05-12T08:20:48.691Z,7.72
2023-05-12T08:23:16.120Z,8.02
2023-05-12T08:25:42.618Z,8.00
2023-05-12T08:28:08.976Z,7.68
2023-05-12T08:30:35.508Z,8.02
2023-05-12T08:33:02.764Z,7.93
2023-05-12T08:35:30.629Z,8.13
2023-05-12T08:37:57.177Z,7.65
2023-05-12T08:40:24.950Z,7.82
2023-05-12T08:43:01.737Z,7.80
2023-05-12T08:45:29.358Z,7.97
2023-05-12T08:47:58.206Z,8.63
2023-05-12T08:50:27.022Z,7.93
2023-05-12T08:52:56.084Z,6.97
2023-05-12T08:55:27.383Z,7.82
2023-05-12T08:57:57.738Z,7.70
2023-05-12T09:00:25.581Z,8.50
2023-05-12T09:02:54.791Z,7.95
2023-05-12T09:05:21.877Z,7.93
2023-05-12T09:07:49.965Z,7.40
2023-05-12T09:10:32.672Z,7.50
2023-05-12T09:13:03.806Z,7.88
2023-05-12T09:15:39.352Z,6.82
2023-05-12T09:18:06.018Z,7.68
2023-05-12T09:20:32.790Z,7.00
2023-05-12T09:22:59.265Z,7.80
2023-05-12T09:25:26.983Z,7.68
2023-05-12T09:27:55.233Z,7.10
2023-05-12T09:30:30.104Z,7.30
2023-05-12T09:33:05.514Z,7.57
2023-05-12T09:35:32.003Z,7.47
2023-05-12T09:38:05.946Z,7.38
2023-05-12T09:40:34.067Z,6.50
2023-05-12T09:43:00.579Z,7.50
2023-05-12T09:45:26.962Z,6.70
2023-05-12T09:47:53.563Z,6.60
2023-05-12T09:50:20.198Z,6.22
2023-05-12T09:52:46.548Z,7.28
2023-05-12T09:55:13.730Z,6.57
2023-05-12T09:57:43.466Z,7.30
2023-05-12T10:00:26.465Z,6.25
2023-05-12T10:02:58.634Z,6.43
2023-05-12T10:05:25.234Z,6.65
2023-05-12T10:07:57.388Z,5.40
2023-05-12T10:10:26.109Z,4.47
2023-05-12T10:12:54.209Z,5.13
2023-05-12T10:15:23.158Z,4.82
2023-05-12T10:17:53.103Z,5.15
2023-05-12T10:20:20.690Z,4.95
2023-05-12T10:22:49.173Z,5.80
2023-05-12T10:25:17.235Z,6.43
2023-05-12T10:27:44.369Z,5.47
2023-05-12T10:30:13.466Z,5.40
2023-05-12T10:32:40.192Z,5.13
2023-05-12T10:35:07.978Z,5.07
2023-05-12T10:37:35.781Z,4.75
2023-05-12T10:40:02.290Z,5.53
2023-05-12T10:42:37.675Z,4.68
2023-05-12T10:45:17.323Z,5.40
2023-05-12T10:47:47.254Z,4.65
2023-05-12T10:50:13.952Z,5.53
2023-05-12T10:52:41.094Z,5.57
2023-05-12T10:55:12.228Z,5.65
2023-05-12T10:57:49.320Z,5.43
2023-05-12T11:00:27.915Z,4.70
2023-05-12T11:02:56.884Z,5.80
2023-05-12T11:05:33.897Z,5.20
2023-05-12T11:08:02.220Z,4.93
2023-05-12T11:10:29.349Z,5.30
2023-05-12T11:12:56.920Z,5.22
2023-05-12T11:15:26.111Z,5.72
2023-05-12T11:17:52.614Z,4.97
2023-05-12T11:20:23.102Z,5.65
2023-05-12T11:22:49.798Z,4.40
2023-05-12T11:25:17.009Z,4.45
2023-05-12T11:27:46.565Z,5.25
2023-05-12T11:30:13.166Z,4.95
2023-05-12T11:32:40.993Z,4.40
2023-05-12T11:35:11.863Z,5.03
2023-05-12T11:37:38.943Z,4.97
2023-05-12T11:40:13.656Z,4.53
2023-05-12T11:42:40.220Z,4.82
2023-05-12T11:45:07.920Z,4.68
2023-05-12T11:47:34.450Z,4.55
2023-05-12T11:50:03.475Z,5.30
2023-05-12T11:52:29.943Z,4.88
2023-05-12T11:54:58.396Z,4.63
2023-05-12T11:57:26.145Z,4.68
2023-05-12T11:59:57.433Z,4.47
2023-05-12T12:02:23.865Z,4.63
2023-05-12T12:04:50.277Z,4.70
2023-05-12T12:07:28.950Z,4.90
2023-05-12T12:09:55.531Z,5.40
2023-05-12T12:12:22.116Z,5.40
2023-05-12T12:14:51.423Z,4.38
2023-05-12T12:17:17.858Z,4.68
2023-05-12T12:19:44.281Z,5.72
2023-05-12T12:22:10.829Z,5.40
2023-05-12T12:24:38.572Z,5.65
2023-05-12T12:27:05.617Z,5.07
2023-05-12T12:29:32.018Z,4.88
2023-05-12T12:31:58.548Z,5.50
2023-05-12T12:34:24.956Z,5.15
2023-05-12T12:36:51.722Z,4.53
2023-05-12T12:39:19.957Z,4.78
2023-05-12T12:41:48.016Z,4.50
2023-05-12T12:44:14.763Z,4.55
2023-05-12T12:46:43.416Z,4.57
2023-05-12T12:49:09.915Z,4.68
2023-05-12T12:51:45.495Z,4.28
2023-05-12T12:54:13.718Z,4.75
2023-05-12T12:56:40.149Z,4.22
2023-05-12T12:59:07.928Z,4.93
2023-05-12T13:01:35.027Z,4.70
2023-05-12T13:04:01.666Z,5.13
2023-05-12T13:06:28.099Z,4.63
2023-05-12T13:08:54.488Z,4.50
2023-05-12T13:11:20.973Z,3.95
2023-05-12T13:13:47.413Z,4.15
2023-05-12T13:16:15.236Z,3.40
2023-05-12T13:18:41.744Z,3.42
2023-05-12T13:21:08.137Z,3.67
2023-05-12T13:23:34.616Z,4.63
2023-05-12T13:26:00.981Z,4.10
2023-05-12T13:28:27.494Z,4.28
2023-05-12T13:30:54.058Z,3.50
2023-05-12T13:33:21.980Z,4.00
2023-05-12T13:35:48.391Z,4.20
2023-05-12T13:38:14.788Z,3.78
2023-05-12T13:40:41.154Z,4.13
2023-05-12T13:43:07.506Z,3.45
2023-05-12T13:45:34.127Z,3.67
2023-05-12T13:48:00.586Z,3.83
2023-05-12T13:50:30.379Z,4.00
2023-05-12T13:52:57.800Z,3.90
2023-05-12T13:55:24.480Z,3.80
2023-05-12T13:57:51.089Z,3.50
2023-05-12T14:00:18.109Z,4.00
2023-05-12T14:02:44.640Z,3.67
2023-05-12T14:05:11.213Z,3.60
2023-05-12T14:07:39.011Z,3.90
2023-05-12T14:10:06.514Z,3.58
2023-05-12T14:12:32.924Z,4.40
2023-05-12T14:15:07.821Z,4.28
2023-05-12T14:17:45.791Z,3.33
2023-05-12T14:20:12.683Z,3.15
2023-05-12T14:22:40.474Z,3.58
2023-05-12T14:25:07.632Z,3.22
2023-05-12T14:27:34.086Z,3.50
2023-05-12T14:30:00.517Z,3.78
2023-05-12T14:32:27.018Z,3.65
2023-05-12T14:34:53.462Z,3.97
2023-05-12T14:37:19.836Z,3.63
2023-05-12T14:39:47.537Z,3.72
2023-05-12T14:42:14.155Z,3.75
2023-05-12T14:44:40.585Z,3.60
2023-05-12T14:47:08.980Z,4.10
2023-05-12T14:49:39.452Z,3.50
2023-05-12T14:52:06.186Z,3.80
2023-05-12T14:54:33.197Z,3.67
2023-05-12T14:57:00.962Z,3.45
2023-05-12T14:59:28.921Z,3.45
2023-05-12T15:01:55.362Z,3.33
2023-05-12T15:04:21.769Z,3.65
2023-05-12T15:06:48.187Z,3.70
2023-05-12T15:09:14.574Z,3.47
2023-05-12T15:11:41.048Z,3.22
2023-05-12T15:14:08.749Z,3.33
2023-05-12T15:16:35.226Z,3.53
2023-05-12T15:19:01.782Z,4.15
2023-05-12T15:21:28.271Z,4.07
2023-05-12T15:23:54.701Z,4.07
2023-05-12T15:26:32.696Z,4.00
2023-05-12T15:29:00.515Z,4.10
2023-05-12T15:31:30.060Z,3.78
2023-05-12T15:33:56.918Z,4.45
2023-05-12T15:36:23.639Z,3.83
2023-05-12T15:38:50.027Z,4.20
2023-05-12T15:41:16.415Z,4.13
2023-05-12T15:43:42.812Z,4.18
2023-05-12T15:46:09.353Z,3.65
2023-05-12T15:48:37.096Z,3.80
2023-05-12T15:51:03.598Z,3.63
2023-05-12T15:53:30.042Z,4.10
2023-05-12T15:56:00.163Z,4.00
2023-05-12T15:58:26.544Z,4.28
2023-05-12T16:00:53.371Z,4.05
2023-05-12T16:03:19.884Z,3.60
2023-05-12T16:05:47.722Z,4.10
2023-05-12T16:08:14.183Z,3.72
2023-05-12T16:10:40.787Z,3.55
2023-05-12T16:13:07.182Z,3.63
2023-05-12T16:15:33.926Z,3.67
2023-05-12T16:18:00.432Z,3.88
2023-05-12T16:20:26.961Z,3.45
2023-05-12T16:22:54.732Z,3.80
2023-05-12T16:25:21.536Z,3.88
2023-05-12T16:27:48.116Z,3.40
2023-05-12T16:30:14.981Z,3.53
2023-05-12T16:32:42.289Z,4.05
2023-05-12T16:35:09.217Z,4.00
2023-05-12T16:37:35.640Z,4.00
2023-05-12T16:40:03.561Z,3.88
2023-05-12T16:42:29.946Z,3.85
2023-05-12T16:44:56.383Z,3.65
2023-05-12T16:47:22.854Z,3.72
2023-05-12T16:49:51.885Z,3.50
2023-05-12T16:52:18.260Z,4.45
2023-05-12T16:54:44.627Z,3.80
2023-05-12T16:57:12.327Z,4.03
2023-05-12T16:59:38.851Z,4.53
2023-05-12T17:02:05.668Z,3.90
2023-05-12T17:04:32.083Z,3.67
2023-05-12T17:06:58.515Z,3.60
2023-05-12T17:09:24.876Z,3.72
2023-05-12T17:11:51.371Z,3.80
2023-05-12T17:14:19.448Z,3.20
2023-05-12T17:16:45.969Z,3.95
2023-05-12T17:19:14.287Z,3.90
2023-05-12T17:21:41.186Z,3.78
2023-05-12T17:24:08.461Z,5.03
2023-05-12T17:26:34.992Z,4.10
2023-05-12T17:29:02.132Z,4.25
2023-05-12T17:31:29.854Z,3.65
2023-05-12T17:33:56.399Z,3.90
2023-05-12T17:36:22.955Z,3.65
2023-05-12T17:38:50.083Z,4.25
2023-05-12T17:41:16.486Z,4.40
2023-05-12T17:43:42.983Z,3.90
2023-05-12T17:46:09.732Z,3.47
2023-05-12T17:48:37.410Z,3.67
2023-05-12T17:51:04.623Z,3.55
2023-05-12T17:53:32.049Z,3.95
2023-05-12T17:55:58.775Z,4.13
2023-05-12T17:58:25.297Z,4.25
2023-05-12T18:00:51.991Z,3.65
2023-05-12T18:03:18.513Z,3.78
2023-05-12T18:05:46.359Z,4.00
2023-05-12T18:08:12.713Z,3.53
2023-05-12T18:10:39.051Z,3.72
2023-05-12T18:13:05.430Z,4.22
2023-05-12T18:15:31.780Z,3.28
2023-05-12T18:17:58.195Z,4.35
2023-05-12T18:20:24.802Z,3.90
2023-05-12T18:22:52.652Z,3.90
2023-05-12T18:25:19.609Z,3.83
2023-05-12T18:27:46.257Z,3.97
2023-05-12T18:30:13.552Z,4.07
2023-05-12T18:32:39.921Z,4.10
2023-05-12T18:35:07.708Z,4.03
2023-05-12T18:37:34.484Z,3.90
2023-05-12T18:40:02.137Z,4.00
2023-05-12T18:42:28.509Z,3.80
2023-05-12T18:44:55.061Z,4.00
2023-05-12T18:47:21.465Z,4.50
2023-05-12T18:49:47.895Z,4.53
2023-05-12T18:52:14.249Z,3.88
2023-05-12T18:54:40.617Z,3.55
2023-05-12T18:57:08.349Z,4.13
2023-05-12T18:59:34.716Z,3.90
2023-05-12T19:02:01.253Z,3.75
2023-05-12T19:04:27.944Z,4.47
2023-05-12T19:06:54.303Z,4.05
2023-05-12T19:09:20.670Z,4.20
2023-05-12T19:11:47.067Z,4.22
2023-05-12T19:14:14.764Z,4.25
2023-05-12T19:16:41.221Z,4.53
2023-05-12T19:19:07.825Z,4.00
2023-05-12T19:21:34.366Z,4.18
2023-05-12T19:24:00.809Z,3.33
2023-05-12T19:26:27.192Z,4.47
2023-05-12T19:28:53.651Z,4.40
2023-05-12T19:31:21.410Z,4.70
2023-05-12T19:33:47.900Z,4.22
2023-05-12T19:36:14.472Z,4.63
2023-05-12T19:38:40.852Z,4.18
2023-05-12T19:41:07.218Z,4.45
2023-05-12T19:43:33.605Z,4.10
2023-05-12T19:46:00.049Z,4.65
2023-05-12T19:48:27.811Z,4.88
2023-05-12T19:50:54.416Z,6.03
2023-05-12T19:53:20.814Z,6.13
2023-05-12T19:55:47.246Z,5.55
2023-05-12T19:58:13.610Z,5.13
2023-05-12T20:00:40.003Z,5.03
2023-05-12T20:03:06.505Z,5.60
2023-05-12T20:05:35.680Z,5.38
2023-05-12T20:08:02.167Z,5.30
2023-05-12T20:10:28.572Z,5.70
2023-05-12T20:12:54.952Z,5.78
2023-05-12T20:15:23.496Z,5.65
2023-05-12T20:17:50.083Z,6.22
2023-05-12T20:20:16.528Z,5.65
2023-05-12T20:22:44.229Z,5.65
2023-05-12T20:25:10.708Z,5.63
2023-05-12T20:27:37.101Z,5.68
2023-05-12T20:30:04.398Z,5.70
2023-05-12T20:32:30.979Z,5.10
2023-05-12T20:34:57.366Z,5.55
2023-05-12T20:37:23.758Z,5.57
2023-05-12T20:39:51.555Z,5.68
2023-05-12T20:42:17.959Z,6.00
2023-05-12T20:44:44.292Z,5.38
2023-05-12T20:47:11.441Z,5.72
2023-05-12T20:49:37.822Z,5.47
2023-05-12T20:52:05.431Z,4.65
2023-05-12T20:54:31.863Z,5.65
2023-05-12T20:56:59.553Z,5.25
2023-05-12T20:59:25.906Z,6.00
2023-05-12T21:01:52.396Z,5.38
2023-05-12T21:04:18.948Z,6.35
2023-05-12T21:06:45.404Z,5.88
2023-05-12T21:09:11.935Z,5.70
2023-05-12T21:11:38.313Z,5.22
2023-05-12T21:14:06.053Z,5.65
2023-05-12T21:16:32.522Z,6.05
2023-05-12T21:18:58.958Z,5.25
2023-05-12T21:21:25.373Z,6.13
2023-05-12T21:23:51.908Z,5.63
2023-05-12T21:26:18.254Z,5.95
2023-05-12T21:28:44.631Z,5.65
2023-05-12T21:31:12.353Z,5.50
2023-05-12T21:33:38.732Z,6.07
2023-05-12T21:36:06.127Z,6.25
2023-05-12T21:38:32.502Z,5.38
2023-05-12T21:40:58.864Z,5.60
2023-05-12T21:43:25.209Z,6.35
2023-05-12T21:45:51.634Z,6.25
2023-05-12T21:48:19.422Z,6.43
2023-05-12T21:50:56.803Z,5.78
2023-05-12T21:53:23.202Z,6.32
2023-05-12T21:55:49.550Z,5.72
2023-05-12T21:58:15.960Z,6.13
2023-05-12T22:00:42.316Z,5.97
2023-05-12T22:03:08.778Z,6.68
2023-05-12T22:05:36.630Z,6.43
2023-05-12T22:08:03.154Z,5.80
2023-05-12T22:10:29.489Z,6.00
2023-05-12T22:12:56.119Z,6.50
2023-05-12T22:15:24.799Z,5.28
2023-05-12T22:17:51.161Z,6.20
2023-05-12T22:20:17.918Z,5.60
2023-05-12T22:22:45.703Z,6.05
2023-05-12T22:25:12.056Z,6.07
2023-05-12T22:27:38.558Z,6.35
2023-05-12T22:30:06.225Z,6.60
2023-05-12T22:32:32.651Z,6.35
2023-05-12T22:34:59.086Z,6.03
2023-05-12T22:37:25.540Z,6.60
2023-05-12T22:39:54.310Z,6.72
2023-05-12T22:42:20.820Z,6.45
2023-05-12T22:44:47.182Z,6.60
2023-05-12T22:47:13.625Z,6.10
2023-05-12T22:49:39.982Z,5.95
2023-05-12T22:52:06.896Z,5.75
2023-05-12T22:54:33.318Z,6.30
2023-05-12T22:57:01.029Z,6.20
2023-05-12T22:59:27.434Z,6.03
2023-05-12T23:01:53.847Z,6.75
2023-05-12T23:04:20.407Z,5.80
2023-05-12T23:06:46.843Z,6.55
2023-05-12T23:09:13.511Z,6.88
2023-05-12T23:11:39.895Z,6.00
2023-05-12T23:14:07.643Z,6.95
2023-05-12T23:16:34.151Z,5.80
2023-05-12T23:19:00.565Z,6.32
2023-05-12T23:21:26.964Z,6.53
2023-05-12T23:23:53.394Z,6.97
2023-05-12T23:26:19.755Z,6.38
2023-05-12T23:28:46.113Z,6.80
2023-05-12T23:31:13.948Z,7.07
2023-05-12T23:33:40.398Z,6.90
2023-05-12T23:36:07.664Z,6.25
2023-05-12T23:38:34.062Z,6.10
2023-05-12T23:41:00.474Z,7.78
2023-05-12T23:43:26.915Z,7.28
2023-05-12T23:45:53.533Z,6.10
2023-05-12T23:48:21.260Z,6.88
2023-05-12T23:50:47.732Z,6.93
2023-05-12T23:53:14.186Z,7.43
2023-05-12T23:55:40.618Z,7.38
2023-05-12T23:58:07.157Z,7.22
